Time;durP1;ratioP1;P1;durP2;ratioP2;P2;SDS_P1;SDS_P2;PMS_P1;PMS_P2;Temp;Humidity;BMP_temperature;BMP_pressure;BME280_temperature;BME280_humidity;BME280_pressure;Samples;Min_cycle;Max_cycle;Signal;HPM_P1;HPM_P2
2023/04/27 00:01:41;;;;;;;9.40;3.30;;;;;;;15.06;35.33;101755.25;5032645;28;20048;-67
2023/04/27 00:04:07;;;;;;;8.93;3.45;;;;;;;15.07;35.21;101757.81;5021209;28;20025;-68
2023/04/27 00:06:33;;;;;;;6.53;3.95;;;;;;;15.12;35.05;101754.72;5066833;28;20063;-67
2023/04/27 00:08:59;;;;;;;5.93;3.60;;;;;;;15.11;35.13;101755.69;5015378;28;20053;-68
2023/04/27 00:11:24;;;;;;;6.15;2.85;;;;;;;15.15;35.87;101754.44;5031306;28;20497;-68
2023/04/27 00:13:49;;;;;;;7.85;3.60;;;;;;;15.17;35.90;101752.47;5031246;28;20054;-68
2023/04/27 00:16:15;;;;;;;8.63;3.63;;;;;;;15.16;35.63;101748.03;5031035;28;20041;-67
2023/04/27 00:18:41;;;;;;;6.10;3.78;;;;;;;15.14;36.46;101753.59;5014975;28;20026;-67
2023/04/27 00:21:07;;;;;;;8.02;3.63;;;;;;;15.14;36.15;101747.34;5031940;28;20104;-67
2023/04/27 00:23:33;;;;;;;6.00;3.53;;;;;;;15.11;36.51;101753.00;5032982;28;20037;-67
2023/04/27 00:25:58;;;;;;;5.05;2.90;;;;;;;15.06;35.50;101752.56;5015608;28;20029;-67
2023/04/27 00:28:23;;;;;;;8.73;2.85;;;;;;;15.05;36.07;101765.19;5026791;28;20053;-67
2023/04/27 00:30:52;;;;;;;4.45;2.95;;;;;;;15.02;36.54;101761.91;5038367;28;20045;-67
2023/04/27 00:33:18;;;;;;;6.80;3.83;;;;;;;15.04;34.83;101762.63;5056722;28;20377;-67
2023/04/27 00:35:43;;;;;;;9.10;3.10;;;;;;;15.03;35.09;101767.19;5054361;28;20063;-67
2023/04/27 00:38:09;;;;;;;7.65;3.60;;;;;;;15.01;35.11;101758.38;5056340;28;20496;-67
2023/04/27 00:40:34;;;;;;;5.90;3.20;;;;;;;14.90;34.97;101744.97;5055118;28;20037;-68
2023/04/27 00:42:59;;;;;;;4.47;2.67;;;;;;;14.95;36.57;101753.50;5038930;28;20101;-67
2023/04/27 00:45:25;;;;;;;4.95;2.28;;;;;;;14.93;36.29;101754.63;5041430;28;20055;-67
2023/04/27 00:47:50;;;;;;;6.95;3.25;;;;;;;14.90;35.85;101754.91;5055160;28;20119;-68
2023/04/27 00:50:19;;;;;;;8.57;3.47;;;;;;;14.87;35.37;101750.63;5037813;28;20060;-67
2023/04/27 00:52:44;;;;;;;8.98;3.13;;;;;;;14.79;35.33;101742.34;5054574;28;20033;-68
2023/04/27 00:55:10;;;;;;;5.97;2.97;;;;;;;14.79;36.34;101752.28;5037598;28;20037;-67
2023/04/27 00:57:36;;;;;;;4.93;2.60;;;;;;;14.69;36.55;101752.22;5054315;28;20036;-67
2023/04/27 01:00:05;;;;;;;7.00;2.95;;;;;;;14.60;36.23;101753.00;5038077;28;20048;-67
2023/04/27 01:02:30;;;;;;;5.32;3.08;;;;;;;14.51;36.72;101749.28;5055329;28;20515;-67
2023/04/27 01:04:56;;;;;;;10.35;3.17;;;;;;;14.41;36.41;101742.97;5017514;28;20029;-67
2023/04/27 01:07:25;;;;;;;4.93;2.88;;;;;;;14.36;35.54;101755.13;5017794;28;20183;-67
2023/04/27 01:09:51;;;;;;;8.43;3.38;;;;;;;14.29;35.52;101760.13;5037485;28;20392;-67
2023/04/27 01:12:16;;;;;;;4.15;2.55;;;;;;;14.22;36.05;101753.56;5037773;28;20029;-67
2023/04/27 01:14:41;;;;;;;6.30;2.85;;;;;;;14.15;36.27;101760.47;5053881;28;20112;-67
2023/04/27 01:17:07;;;;;;;4.38;2.97;;;;;;;14.09;35.74;101763.69;5023302;28;20041;-67
2023/04/27 01:19:32;;;;;;;3.65;2.67;;;;;;;14.01;36.22;101760.78;5048269;28;20033;-67
2023/04/27 01:21:57;;;;;;;5.30;2.42;;;;;;;13.94;36.84;101771.19;5058302;28;20413;-68
2023/04/27 01:24:23;;;;;;;9.15;2.90;;;;;;;13.88;37.01;101776.22;5043325;28;20063;-66
2023/04/27 01:26:50;;;;;;;10.55;3.13;;;;;;;13.79;36.10;101768.94;5037732;28;20425;-67
2023/04/27 01:29:16;;;;;;;4.50;2.72;;;;;;;13.76;35.69;101777.28;5038402;28;20030;-67
2023/04/27 01:31:41;;;;;;;8.38;3.35;;;;;;;13.66;37.00;101770.91;5034833;28;20125;-67
2023/04/27 01:34:07;;;;;;;3.30;2.63;;;;;;;13.59;36.61;101780.47;5033764;28;20064;-67
2023/04/27 01:36:32;;;;;;;5.57;3.08;;;;;;;13.47;37.07;101766.19;5034668;28;20037;-67
2023/04/27 01:38:57;;;;;;;6.88;2.78;;;;;;;13.39;36.32;101763.25;5037145;28;20036;-67
2023/04/27 01:41:23;;;;;;;7.18;2.83;;;;;;;13.31;36.98;101765.72;5053388;28;20155;-66
2023/04/27 01:43:49;;;;;;;8.13;2.90;;;;;;;13.24;37.00;101764.47;5053574;28;20036;-67
2023/04/27 01:46:14;;;;;;;5.13;2.90;;;;;;;13.21;37.03;101765.59;5054535;28;20435;-66
2023/04/27 01:48:40;;;;;;;11.80;3.30;;;;;;;13.13;37.28;101753.72;5036720;28;20033;-67
2023/04/27 01:51:06;;;;;;;7.65;2.60;;;;;;;13.12;37.24;101760.94;5053547;28;20025;-67
2023/04/27 01:53:32;;;;;;;10.40;3.25;;;;;;;13.06;36.62;101756.03;5054294;28;20112;-66
2023/04/27 01:56:00;;;;;;;4.25;2.90;;;;;;;13.03;36.48;101755.41;5054427;28;20033;-67
2023/04/27 01:58:26;;;;;;;4.82;2.42;;;;;;;12.97;36.86;101759.47;5037395;28;20040;-66
2023/04/27 02:00:51;;;;;;;5.30;3.00;;;;;;;12.95;37.40;101766.81;5037239;28;20029;-66
2023/04/27 02:03:17;;;;;;;7.38;3.17;;;;;;;12.93;37.02;101766.03;5037108;28;20033;-67
2023/04/27 02:05:42;;;;;;;10.00;3.60;;;;;;;12.92;37.28;101769.72;5052989;28;20047;-67
2023/04/27 02:08:08;;;;;;;6.30;2.38;;;;;;;12.85;37.52;101766.66;5036178;28;20028;-67
2023/04/27 02:10:34;;;;;;;7.20;2.75;;;;;;;12.80;37.44;101766.16;5052962;28;20048;-67
2023/04/27 02:13:00;;;;;;;4.15;2.08;;;;;;;12.77;36.99;101765.53;5054042;28;20025;-67
2023/04/27 02:15:25;;;;;;;4.30;2.13;;;;;;;12.71;37.28;101766.00;5035875;28;20119;-67
2023/04/27 02:17:51;;;;;;;6.05;2.67;;;;;;;12.62;37.38;101766.72;5053328;28;20025;-67
2023/04/27 02:20:16;;;;;;;4.93;2.38;;;;;;;12.59;37.66;101761.63;5036140;28;20039;-67
2023/04/27 02:22:42;;;;;;;6.50;2.97;;;;;;;12.54;37.85;101755.72;5053283;28;20033;-66
2023/04/27 02:25:08;;;;;;;7.20;2.72;;;;;;;12.51;37.76;101753.25;5030059;28;20029;-67
2023/04/27 02:27:36;;;;;;;5.47;2.42;;;;;;;12.50;37.72;101757.81;5032787;28;20025;-67
2023/04/27 02:30:07;;;;;;;8.27;3.28;;;;;;;12.50;38.15;101765.00;5016355;28;20032;-66
2023/04/27 02:32:32;;;;;;;12.00;3.53;;;;;;;12.52;37.55;101755.00;5030356;28;20038;-66
2023/04/27 02:34:58;;;;;;;7.63;3.08;;;;;;;12.55;37.09;101760.13;5028777;28;20187;-66
2023/04/27 02:37:23;;;;;;;10.43;3.28;;;;;;;12.61;37.59;101760.53;5035468;28;20053;-67
2023/04/27 02:39:49;;;;;;;5.78;2.92;;;;;;;12.65;37.75;101755.75;5035770;28;20033;-66
2023/04/27 02:42:15;;;;;;;4.07;2.47;;;;;;;12.69;37.94;101754.53;5019708;28;20025;-67
2023/04/27 02:44:40;;;;;;;4.85;2.45;;;;;;;12.72;37.97;101744.41;5017481;28;20060;-66
2023/04/27 02:47:06;;;;;;;4.05;2.33;;;;;;;12.74;37.99;101755.03;5046365;28;20029;-66
2023/04/27 02:49:31;;;;;;;11.52;2.80;;;;;;;12.76;37.64;101753.06;5043017;28;20048;-66
2023/04/27 02:51:56;;;;;;;6.28;2.65;;;;;;;12.77;38.05;101749.41;5032090;28;20029;-67
2023/04/27 02:54:22;;;;;;;9.13;2.97;;;;;;;12.76;37.65;101748.56;5033919;28;20036;-67
2023/04/27 02:56:48;;;;;;;5.32;3.00;;;;;;;12.79;38.00;101752.81;5015614;28;20036;-67
2023/04/27 02:59:13;;;;;;;11.00;3.22;;;;;;;12.82;38.04;101755.28;5029994;28;20040;-67
2023/04/27 03:01:38;;;;;;;6.25;3.50;;;;;;;12.80;37.24;101754.56;5052100;28;20044;-66
2023/04/27 03:04:04;;;;;;;5.15;2.60;;;;;;;12.81;37.33;101751.72;5046228;28;20098;-67
2023/04/27 03:06:29;;;;;;;5.45;2.42;;;;;;;12.76;38.03;101751.25;5031707;28;20071;-65
2023/04/27 03:08:55;;;;;;;6.90;3.03;;;;;;;12.75;37.28;101756.75;5032295;28;20107;-65
2023/04/27 03:11:20;;;;;;;8.10;2.47;;;;;;;12.70;37.30;101753.56;5031896;28;20057;-64
2023/04/27 03:13:45;;;;;;;8.52;3.10;;;;;;;12.65;37.46;101747.69;5044252;28;20104;-65
2023/04/27 03:16:11;;;;;;;4.35;2.60;;;;;;;12.60;37.69;101739.97;5034957;28;20098;-65
2023/04/27 03:18:38;;;;;;;8.55;3.35;;;;;;;12.58;37.92;101751.84;5068263;28;20029;-65
2023/04/27 03:21:05;;;;;;;4.85;2.90;;;;;;;12.55;37.89;101747.56;5052137;28;20025;-65
2023/04/27 03:23:30;;;;;;;5.20;2.95;;;;;;;12.52;37.40;101749.63;5051546;28;20098;-65
2023/04/27 03:25:56;;;;;;;6.53;3.25;;;;;;;12.49;38.32;101749.84;5051519;28;20033;-65
2023/04/27 03:28:21;;;;;;;7.18;3.13;;;;;;;12.46;38.23;101750.94;5034982;28;20052;-65
2023/04/27 03:30:47;;;;;;;7.85;2.83;;;;;;;12.42;37.67;101748.63;5051468;28;20388;-65
2023/04/27 03:33:13;;;;;;;9.27;3.40;;;;;;;12.39;38.44;101741.66;5051945;28;20492;-65
2023/04/27 03:35:38;;;;;;;6.35;3.33;;;;;;;12.38;38.10;101741.75;5034998;28;20037;-66
2023/04/27 03:38:03;;;;;;;5.38;2.78;;;;;;;12.34;38.06;101740.31;5051448;28;20131;-64
2023/04/27 03:40:29;;;;;;;6.82;3.03;;;;;;;12.30;38.00;101752.25;5052751;28;20029;-65
2023/04/27 03:42:54;;;;;;;4.35;2.78;;;;;;;12.23;38.18;101755.41;5034830;28;20032;-65
2023/04/27 03:45:21;;;;;;;8.55;3.05;;;;;;;12.20;38.16;101749.41;5051750;28;20040;-65
2023/04/27 03:47:46;;;;;;;7.72;3.00;;;;;;;12.15;38.13;101752.44;5051418;28;20029;-65
2023/04/27 03:50:12;;;;;;;6.38;2.50;;;;;;;12.10;37.85;101753.75;5051288;28;20037;-65
2023/04/27 03:52:37;;;;;;;6.63;2.78;;;;;;;12.05;38.00;101761.31;5051024;28;20123;-65
2023/04/27 03:55:04;;;;;;;5.25;2.65;;;;;;;12.00;38.27;101772.41;5051320;28;20057;-65
2023/04/27 03:57:29;;;;;;;5.75;2.95;;;;;;;11.99;38.26;101776.06;5034940;28;20404;-65
2023/04/27 03:59:56;;;;;;;10.25;3.05;;;;;;;11.94;38.10;101769.31;5052011;28;20033;-65
2023/04/27 04:02:22;;;;;;;10.38;2.75;;;;;;;11.95;38.05;101782.63;5054334;28;20496;-65
2023/04/27 04:04:48;;;;;;;5.13;2.47;;;;;;;11.92;38.12;101776.66;5055413;28;20037;-64
2023/04/27 04:07:13;;;;;;;2.95;2.15;;;;;;;11.85;38.02;101786.97;5037586;28;20125;-65
2023/04/27 04:09:39;;;;;;;8.10;2.40;;;;;;;11.80;38.47;101785.59;5056876;28;20524;-65
2023/04/27 04:12:05;;;;;;;7.10;2.58;;;;;;;11.73;38.48;101790.56;5055490;28;20036;-65
2023/04/27 04:14:30;;;;;;;6.18;2.60;;;;;;;11.67;38.15;101793.66;5055095;28;20508;-65
2023/04/27 04:16:55;;;;;;;4.30;2.17;;;;;;;11.65;37.59;101791.09;5055890;28;20069;-65
2023/04/27 04:19:21;;;;;;;4.97;3.00;;;;;;;11.62;38.51;101790.44;5054971;28;20037;-65
2023/04/27 04:21:46;;;;;;;6.55;2.97;;;;;;;11.59;38.30;101796.91;5055283;28;20116;-65
2023/04/27 04:24:12;;;;;;;5.78;2.45;;;;;;;11.58;38.18;101792.53;5055188;28;20037;-65
2023/04/27 04:26:38;;;;;;;7.07;2.53;;;;;;;11.54;38.28;101793.72;5019985;28;20037;-65
2023/04/27 04:29:03;;;;;;;14.98;3.20;;;;;;;11.51;38.45;101793.06;5048516;28;20526;-65
2023/04/27 04:31:29;;;;;;;6.22;2.50;;;;;;;11.48;38.12;101799.50;5045685;28;20045;-65
2023/04/27 04:33:54;;;;;;;8.50;3.20;;;;;;;11.44;38.15;101798.03;5018163;28;20120;-64
2023/04/27 04:36:20;;;;;;;5.68;2.95;;;;;;;11.44;38.64;101786.44;5035048;28;20489;-65
2023/04/27 04:38:46;;;;;;;5.70;2.80;;;;;;;11.44;38.87;101794.50;5054166;28;20041;-65
2023/04/27 04:41:11;;;;;;;8.77;2.35;;;;;;;11.43;38.62;101795.44;5039917;28;20444;-64
2023/04/27 04:43:36;;;;;;;7.47;3.30;;;;;;;11.43;38.09;101799.00;5034609;28;20500;-64
2023/04/27 04:46:02;;;;;;;6.88;3.35;;;;;;;11.44;38.74;101805.22;5017963;28;20071;-64
2023/04/27 04:48:28;;;;;;;8.60;2.97;;;;;;;11.45;38.69;101802.41;5034896;28;20041;-64
2023/04/27 04:50:53;;;;;;;4.47;3.00;;;;;;;11.48;38.50;101801.34;5054722;28;20029;-64
2023/04/27 04:53:18;;;;;;;8.70;3.35;;;;;;;11.50;38.50;101796.75;5037768;28;20040;-65
2023/04/27 04:55:44;;;;;;;6.97;3.42;;;;;;;11.61;39.02;101804.84;5055374;28;20037;-65
2023/04/27 04:58:09;;;;;;;6.38;3.10;;;;;;;11.63;38.52;101797.53;5054220;28;20040;-64
2023/04/27 05:00:35;;;;;;;6.55;3.17;;;;;;;11.74;38.62;101805.69;5054199;28;20396;-64
2023/04/27 05:03:01;;;;;;;6.43;3.35;;;;;;;11.81;38.65;101806.13;5038011;28;20060;-64
2023/04/27 05:05:27;;;;;;;5.97;3.70;;;;;;;11.92;38.34;101808.88;5054110;28;20032;-64
2023/04/27 05:07:52;;;;;;;6.82;3.42;;;;;;;12.06;38.62;101816.75;5070544;28;20037;-65
2023/04/27 05:10:17;;;;;;;13.90;3.97;;;;;;;12.14;38.55;101803.59;5070682;28;20044;-65
2023/04/27 05:12:43;;;;;;;6.88;3.50;;;;;;;12.32;38.90;101817.44;5052540;28;20033;-65
2023/04/27 05:15:09;;;;;;;8.00;3.72;;;;;;;12.41;38.38;101804.19;5055574;28;20032;-65
2023/04/27 05:17:34;;;;;;;6.90;3.83;;;;;;;12.52;38.23;101814.13;5054800;28;20530;-65
2023/04/27 05:20:00;;;;;;;9.35;3.38;;;;;;;12.63;38.54;101808.78;5051308;28;20083;-65
2023/04/27 05:22:26;;;;;;;8.68;3.92;;;;;;;12.74;38.23;101808.78;5031344;28;20034;-65
2023/04/27 05:24:51;;;;;;;9.73;3.50;;;;;;;12.88;38.87;101818.47;5036834;28;20029;-65
2023/04/27 05:27:16;;;;;;;7.10;3.03;;;;;;;13.00;38.81;101810.31;5055644;28;20102;-65
2023/04/27 05:29:42;;;;;;;12.13;4.13;;;;;;;13.14;38.81;101815.50;5054986;28;20051;-65
2023/04/27 05:32:08;;;;;;;10.32;3.67;;;;;;;13.31;38.27;101815.00;5054888;28;20056;-65
2023/04/27 05:34:33;;;;;;;7.20;3.25;;;;;;;13.47;38.56;101816.47;5054515;28;20036;-65
2023/04/27 05:36:59;;;;;;;9.18;3.67;;;;;;;13.62;38.23;101823.31;5053684;28;20071;-64
2023/04/27 05:39:25;;;;;;;13.23;4.75;;;;;;;13.81;38.37;101826.22;5037402;28;20036;-65
2023/04/27 05:41:50;;;;;;;9.30;4.38;;;;;;;14.00;38.72;101834.50;5060014;28;20029;-68
2023/04/27 05:44:15;;;;;;;9.57;3.70;;;;;;;14.18;38.44;101832.13;5042512;28;20036;-65
2023/04/27 05:46:41;;;;;;;10.95;3.90;;;;;;;14.33;38.77;101826.31;5036941;28;20033;-65
2023/04/27 05:49:06;;;;;;;8.65;4.20;;;;;;;14.53;37.62;101833.59;5036765;28;20166;-65
2023/04/27 05:51:32;;;;;;;10.50;4.68;;;;;;;14.73;37.65;101828.34;5053128;28;20037;-65
2023/04/27 05:53:58;;;;;;;10.95;4.85;;;;;;;14.91;37.69;101821.34;5037183;28;20467;-65
2023/04/27 05:56:24;;;;;;;9.68;3.80;;;;;;;15.12;38.53;101836.53;5053093;28;20492;-65
2023/04/27 05:58:49;;;;;;;19.02;4.40;;;;;;;15.33;37.25;101830.22;5052947;28;20095;-65
2023/04/27 06:01:15;;;;;;;13.05;5.22;;;;;;;15.52;36.97;101828.50;5036479;28;20059;-65
2023/04/27 06:03:40;;;;;;;10.88;4.35;;;;;;;15.70;37.65;101832.25;5020194;28;20074;-65
2023/04/27 06:06:06;;;;;;;8.68;4.45;;;;;;;15.89;38.05;101822.47;5054753;28;20024;-66
2023/04/27 06:08:31;;;;;;;8.85;4.32;;;;;;;16.11;37.70;101827.63;5035094;28;20037;-66
2023/04/27 06:10:57;;;;;;;9.85;4.57;;;;;;;16.27;36.55;101822.56;5027356;28;20041;-65
2023/04/27 06:13:22;;;;;;;10.00;4.18;;;;;;;16.44;36.87;101824.56;5034569;28;20037;-66
2023/04/27 06:15:48;;;;;;;9.48;4.40;;;;;;;16.57;37.47;101819.75;5017117;28;20485;-65
2023/04/27 06:18:13;;;;;;;9.93;4.30;;;;;;;16.71;37.12;101811.19;5016995;28;20064;-65
2023/04/27 06:20:39;;;;;;;17.00;5.03;;;;;;;16.84;37.62;101811.72;5033909;28;20034;-66
2023/04/27 06:23:04;;;;;;;13.10;4.22;;;;;;;17.02;37.83;101808.25;5032813;28;20099;-66
2023/04/27 06:25:30;;;;;;;12.20;5.30;;;;;;;17.17;37.15;101798.69;5032552;28;20402;-65
2023/04/27 06:27:56;;;;;;;9.15;4.05;;;;;;;17.29;36.46;101800.19;5032642;28;20104;-64
2023/04/27 06:30:22;;;;;;;13.57;4.63;;;;;;;17.44;36.32;101801.41;5032931;28;20025;-64
2023/04/27 06:32:48;;;;;;;10.20;3.90;;;;;;;17.61;37.15;101807.91;5015931;28;20030;-65
2023/04/27 06:35:13;;;;;;;11.60;3.80;;;;;;;17.72;36.70;101805.00;5032487;28;20523;-66
2023/04/27 06:37:39;;;;;;;12.30;5.63;;;;;;;17.82;36.53;101806.63;5042806;28;20037;-65
2023/04/27 06:40:05;;;;;;;9.45;4.63;;;;;;;17.89;36.36;101807.75;5035581;28;20036;-65
2023/04/27 06:42:31;;;;;;;8.45;4.10;;;;;;;17.93;36.93;101803.72;5034872;28;20021;-64
2023/04/27 06:44:57;;;;;;;11.70;4.35;;;;;;;17.93;36.62;101809.13;5034222;28;20029;-65
2023/04/27 06:47:22;;;;;;;6.85;3.88;;;;;;;17.95;36.88;101812.53;5032263;28;20129;-64
2023/04/27 06:49:48;;;;;;;11.98;5.35;;;;;;;17.95;36.02;101812.53;5015596;28;20068;-65
2023/04/27 06:52:13;;;;;;;8.50;3.75;;;;;;;18.17;36.65;101804.97;5033267;28;20121;-65
2023/04/27 06:54:38;;;;;;;12.02;4.63;;;;;;;18.41;35.83;101799.78;5032694;28;20025;-65
2023/04/27 06:57:05;;;;;;;9.68;4.43;;;;;;;18.49;36.58;101800.72;5016184;28;20397;-64
2023/04/27 06:59:30;;;;;;;12.73;4.30;;;;;;;18.68;36.06;101805.13;5032375;28;20048;-65
2023/04/27 07:01:55;;;;;;;8.00;3.83;;;;;;;18.87;36.43;101798.66;5032076;28;20030;-65
2023/04/27 07:04:21;;;;;;;12.43;4.30;;;;;;;18.95;35.92;101802.28;5032099;28;20464;-65
2023/04/27 07:06:46;;;;;;;11.90;4.47;;;;;;;19.15;35.36;101814.59;5015480;28;20025;-65
2023/04/27 07:09:12;;;;;;;12.38;4.60;;;;;;;19.36;35.58;101810.66;5015869;28;20440;-65
2023/04/27 07:11:37;;;;;;;8.75;3.92;;;;;;;19.46;35.77;101811.41;5033418;28;20033;-65
2023/04/27 07:14:02;;;;;;;10.57;4.45;;;;;;;19.52;35.84;101805.31;5039413;28;20063;-64
2023/04/27 07:16:28;;;;;;;8.55;4.00;;;;;;;19.63;35.03;101796.88;5031736;28;20042;-65
2023/04/27 07:18:53;;;;;;;9.98;3.95;;;;;;;19.83;35.02;101803.75;5031995;28;20091;-66
2023/04/27 07:21:18;;;;;;;11.02;3.88;;;;;;;20.08;34.37;101808.22;5015691;28;20089;-65
2023/04/27 07:23:45;;;;;;;8.65;4.15;;;;;;;20.24;34.69;101808.28;5031750;28;20408;-65
2023/04/27 07:26:10;;;;;;;9.13;3.95;;;;;;;20.48;34.27;101804.75;5032905;28;20116;-66
2023/04/27 07:28:37;;;;;;;7.32;3.83;;;;;;;20.69;34.12;101806.94;5025161;28;20454;-66
2023/04/27 07:31:05;;;;;;;6.47;3.72;;;;;;;20.83;33.69;101795.34;5046235;28;20434;-66
2023/04/27 07:33:32;;;;;;;9.13;3.47;;;;;;;20.99;34.57;101803.53;5015143;28;20053;-66
2023/04/27 07:35:58;;;;;;;8.52;3.63;;;;;;;21.14;33.48;101799.09;5031326;28;20112;-65
2023/04/27 07:38:24;;;;;;;9.23;3.78;;;;;;;21.31;33.60;101803.47;5031513;28;20108;-66
2023/04/27 07:40:50;;;;;;;12.43;3.90;;;;;;;21.43;33.24;101804.81;5039805;28;20026;-66
2023/04/27 07:43:16;;;;;;;10.00;3.85;;;;;;;21.54;33.36;101802.69;5031623;28;20025;-65
2023/04/27 07:45:42;;;;;;;6.55;3.88;;;;;;;21.68;32.53;101793.78;5031642;28;20067;-65
2023/04/27 07:48:08;;;;;;;7.00;3.58;;;;;;;21.81;33.15;101794.03;5031950;28;20503;-65
2023/04/27 07:50:34;;;;;;;7.45;3.63;;;;;;;21.94;32.23;101794.38;5032569;28;20033;-65
2023/04/27 07:53:00;;;;;;;12.05;3.45;;;;;;;21.99;33.00;101791.94;5039416;28;20112;-66
2023/04/27 07:55:26;;;;;;;5.88;3.67;;;;;;;21.98;32.38;101787.50;5032668;28;20053;-66
2023/04/27 07:57:52;;;;;;;10.02;4.00;;;;;;;21.90;32.62;101788.41;5031235;28;20068;-66
2023/04/27 08:00:18;;;;;;;9.55;4.07;;;;;;;21.92;32.33;101788.22;5015418;28;20390;-65
2023/04/27 08:02:43;;;;;;;7.32;4.10;;;;;;;21.91;32.24;101794.72;5034049;28;20033;-67
2023/04/27 08:05:09;;;;;;;6.68;3.30;;;;;;;21.90;32.61;101782.09;5034716;28;20408;-65
2023/04/27 08:07:34;;;;;;;6.53;3.17;;;;;;;22.00;32.19;101775.38;5034513;28;20032;-66
2023/04/27 08:10:00;;;;;;;8.38;3.42;;;;;;;22.28;31.51;101781.16;5046403;28;20037;-66
2023/04/27 08:12:25;;;;;;;6.47;3.30;;;;;;;22.53;32.21;101782.66;5031283;28;20025;-67
2023/04/27 08:14:51;;;;;;;8.07;3.42;;;;;;;22.75;31.45;101782.84;5015430;28;20040;-66
2023/04/27 08:17:17;;;;;;;7.53;3.92;;;;;;;22.92;31.50;101778.94;5030240;28;20095;-66
2023/04/27 08:19:42;;;;;;;7.53;4.32;;;;;;;22.84;31.45;101782.56;5040673;28;20056;-66
2023/04/27 08:22:08;;;;;;;13.20;4.10;;;;;;;22.75;31.24;101791.03;5031745;28;20370;-66
2023/04/27 08:24:33;;;;;;;9.05;3.33;;;;;;;22.79;31.54;101785.00;5032738;28;20041;-66
2023/04/27 08:26:59;;;;;;;12.25;4.78;;;;;;;22.95;30.29;101782.13;5034482;28;20026;-66
2023/04/27 08:29:24;;;;;;;7.25;3.72;;;;;;;23.09;30.89;101780.44;5031156;28;20037;-66
2023/04/27 08:31:49;;;;;;;11.02;4.40;;;;;;;23.21;30.67;101778.94;5031012;28;20416;-66
2023/04/27 08:34:15;;;;;;;7.35;3.85;;;;;;;23.35;30.38;101772.63;5021913;28;20039;-66
2023/04/27 08:36:41;;;;;;;6.60;3.65;;;;;;;23.45;29.60;101773.19;5048625;28;20033;-65
2023/04/27 08:39:06;;;;;;;8.55;3.95;;;;;;;23.52;30.16;101763.19;5031628;28;20439;-66
2023/04/27 08:41:32;;;;;;;9.48;3.72;;;;;;;23.63;29.55;101770.91;5031223;28;20492;-66
2023/04/27 08:43:57;;;;;;;12.65;3.95;;;;;;;23.69;30.18;101767.44;5031011;28;20107;-67
2023/04/27 08:46:25;;;;;;;8.23;3.92;;;;;;;23.81;29.29;101761.44;5032259;28;20037;-66
2023/04/27 08:48:52;;;;;;;11.40;3.75;;;;;;;23.95;29.33;101760.56;5034246;28;20029;-66
2023/04/27 08:51:17;;;;;;;9.77;4.28;;;;;;;24.06;29.77;101754.56;5034832;28;20036;-67
2023/04/27 08:53:51;;;;;;;8.82;3.40;;;;;;;24.11;29.12;101749.38;5034397;28;20037;-66
2023/04/27 08:56:17;;;;;;;5.65;2.97;;;;;;;24.18;29.11;101744.81;5034307;28;20033;-66
2023/04/27 08:58:43;;;;;;;7.50;3.75;;;;;;;24.38;29.18;101754.06;5033132;28;20045;-67
2023/04/27 09:01:08;;;;;;;7.85;3.92;;;;;;;24.54;28.88;101748.31;5034272;28;20034;-67
2023/04/27 09:03:35;;;;;;;14.07;4.05;;;;;;;24.77;28.71;101746.19;5017460;28;20052;-66
2023/04/27 09:06:04;;;;;;;7.85;3.63;;;;;;;24.87;28.65;101737.66;5034397;28;20028;-66
2023/04/27 09:08:43;;;;;;;10.30;4.25;;;;;;;25.02;28.40;101738.38;5034687;28;20033;-66
2023/04/27 09:11:09;;;;;;;6.85;2.95;;;;;;;24.95;28.60;101747.59;5039189;28;20041;-68
2023/04/27 09:13:36;;;;;;;7.20;4.22;;;;;;;24.90;28.07;101746.31;5033954;28;20034;-68
2023/04/27 09:16:01;;;;;;;8.40;4.03;;;;;;;24.91;28.06;101736.19;5016902;28;20041;-68
2023/04/27 09:18:26;;;;;;;7.68;3.95;;;;;;;24.98;28.46;101731.59;5035178;28;20481;-67
2023/04/27 09:20:52;;;;;;;6.43;2.63;;;;;;;25.07;27.79;101733.13;5034165;28;20025;-67
2023/04/27 09:23:45;;;;;;;10.10;3.95;;;;;;;25.20;27.30;101737.84;5034128;28;20060;-68
2023/04/27 09:26:21;;;;;;;9.35;3.50;;;;;;;25.18;28.11;101745.44;5030652;28;20069;-66
2023/04/27 09:28:49;;;;;;;11.98;4.47;;;;;;;25.22;27.74;101749.47;5033591;28;20125;-66
2023/04/27 09:31:15;;;;;;;9.32;3.95;;;;;;;25.19;27.56;101747.97;5017251;28;20505;-67
2023/04/27 09:33:40;;;;;;;8.82;4.60;;;;;;;25.28;27.35;101759.63;5033628;28;20036;-67
2023/04/27 09:36:07;;;;;;;7.43;4.00;;;;;;;25.28;26.89;101749.50;5017549;28;20436;-67
2023/04/27 09:38:32;;;;;;;8.27;3.85;;;;;;;25.16;27.78;101744.78;5052514;28;20159;-67
2023/04/27 09:40:58;;;;;;;9.07;3.55;;;;;;;25.05;27.32;101743.44;5040333;28;20116;-67
2023/04/27 09:43:26;;;;;;;9.45;3.58;;;;;;;25.04;27.35;101743.66;5016585;28;20114;-66
2023/04/27 09:45:52;;;;;;;6.13;3.28;;;;;;;25.06;27.56;101738.81;5020656;28;20562;-67
2023/04/27 09:48:20;;;;;;;7.20;3.38;;;;;;;25.21;27.24;101734.06;5053509;28;20060;-66
2023/04/27 09:50:48;;;;;;;7.95;3.90;;;;;;;25.46;27.03;101736.06;5016612;28;20041;-67
2023/04/27 09:53:18;;;;;;;8.82;3.70;;;;;;;25.73;26.71;101737.06;5016334;28;20049;-68
2023/04/27 09:56:00;;;;;;;7.40;3.75;;;;;;;26.36;25.84;101732.13;5032224;28;20540;-68
2023/04/27 09:58:35;;;;;;;8.87;3.70;;;;;;;27.61;24.88;101735.56;5033733;28;20095;-66
2023/04/27 10:01:18;;;;;;;7.13;3.42;;;;;;;27.82;24.39;101718.69;5033829;28;20500;-67
2023/04/27 10:03:58;;;;;;;7.45;3.55;;;;;;;27.63;24.88;101719.66;5033913;28;20073;-67
2023/04/27 10:06:33;;;;;;;7.15;4.15;;;;;;;27.31;25.48;101721.44;5033454;28;20024;-67
2023/04/27 10:09:04;;;;;;;6.82;3.10;;;;;;;27.12;26.18;101712.19;5032872;28;20061;-67
2023/04/27 10:11:40;;;;;;;6.28;3.65;;;;;;;27.16;26.04;101718.94;5033079;28;20042;-67
2023/04/27 10:14:09;;;;;;;6.28;3.67;;;;;;;27.15;25.56;101706.25;5032641;28;20041;-68
2023/04/27 10:16:58;;;;;;;6.32;3.22;;;;;;;27.13;25.40;101708.41;5032008;28;20056;-70
2023/04/27 10:19:24;;;;;;;6.28;3.28;;;;;;;27.27;25.66;101700.09;5012929;28;20072;-69
2023/04/27 10:21:59;;;;;;;6.20;3.20;;;;;;;27.43;25.45;101702.38;5032414;28;20469;-69
2023/04/27 10:24:37;;;;;;;8.50;4.13;;;;;;;27.55;25.29;101700.63;5016089;28;20021;-69
2023/04/27 10:27:04;;;;;;;9.48;3.65;;;;;;;27.83;25.09;101709.38;5032770;28;20116;-69
2023/04/27 10:29:41;;;;;;;8.30;4.70;;;;;;;28.04;24.30;101717.31;5015756;28;20138;-69
2023/04/27 10:32:08;;;;;;;7.22;3.95;;;;;;;28.14;25.16;101701.13;5032077;28;20040;-70
2023/04/27 10:34:36;;;;;;;11.43;4.00;;;;;;;28.29;24.93;101698.91;5015615;28;20552;-68
2023/04/27 10:37:09;;;;;;;9.57;3.90;;;;;;;28.41;24.59;101714.72;5015722;28;20128;-70
2023/04/27 10:39:37;;;;;;;8.07;3.60;;;;;;;28.13;24.34;101704.97;5015680;28;20025;-68
2023/04/27 10:42:03;;;;;;;6.05;3.70;;;;;;;28.07;24.46;101716.88;5032513;28;20024;-69
2023/04/27 10:44:30;;;;;;;9.10;3.85;;;;;;;28.15;24.48;101711.09;5032139;28;20033;-69
2023/04/27 10:47:01;;;;;;;15.98;4.00;;;;;;;28.16;23.95;101709.19;5033244;28;20623;-71
2023/04/27 10:49:30;;;;;;;8.10;3.35;;;;;;;28.17;24.01;101708.94;5015336;28;20044;-69
2023/04/27 10:52:03;;;;;;;9.00;3.58;;;;;;;28.13;24.29;101702.22;5031711;28;20529;-68
2023/04/27 10:54:29;;;;;;;8.55;4.72;;;;;;;28.17;24.40;101695.16;5033203;28;20029;-68
2023/04/27 10:57:04;;;;;;;6.75;3.25;;;;;;;28.15;24.32;101683.53;5032156;28;20025;-70
2023/04/27 10:59:30;;;;;;;16.80;4.38;;;;;;;28.10;23.67;101686.13;5031756;28;20037;-70
2023/04/27 11:01:55;;;;;;;7.30;4.22;;;;;;;27.95;24.68;101681.94;5015396;28;20526;-70
2023/04/27 11:04:21;;;;;;;6.03;3.33;;;;;;;27.79;23.99;101676.97;5015336;28;20495;-69
2023/04/27 11:06:46;;;;;;;6.28;3.15;;;;;;;27.60;24.33;101671.38;5032277;28;20035;-68
2023/04/27 11:09:13;;;;;;;6.55;2.92;;;;;;;27.72;23.99;101663.25;5032322;28;20396;-66
2023/04/27 11:11:43;;;;;;;7.03;3.53;;;;;;;27.86;23.77;101670.38;5014670;28;20037;-67
2023/04/27 11:14:08;;;;;;;8.20;3.30;;;;;;;27.99;24.17;101664.75;5015805;28;20501;-66
2023/04/27 11:16:34;;;;;;;130.85;11.50;;;;;;;28.11;23.11;101664.94;5031630;28;20110;-66
2023/04/27 11:19:06;;;;;;;69.43;6.40;;;;;;;28.26;22.98;101652.50;5031806;28;20052;-66
2023/04/27 11:21:31;;;;;;;24.08;4.85;;;;;;;28.31;23.96;101649.91;5014662;28;20097;-65